sensor_id;sensor_type;location;lat;lon;timestamp;pressure;altitude;pressure_sealevel;temperature;humidity
17209;BME280;8720;48.488;9.202;2023-01-30T00:01:43;97667.78;;;3.19;60.42
17209;BME280;8720;48.488;9.202;2023-01-30T00:04:10;97664.28;;;3.16;60.47
17209;BME280;8720;48.488;9.202;2023-01-30T00:06:38;97660.81;;;3.15;60.47
17209;BME280;8720;48.488;9.202;2023-01-30T00:09:06;97642.72;;;3.14;60.36
17209;BME280;8720;48.488;9.202;2023-01-30T00:11:33;97646.13;;;3.13;60.29
17209;BME280;8720;48.488;9.202;2023-01-30T00:14:01;97645.25;;;3.11;60.00
17209;BME280;8720;48.488;9.202;2023-01-30T00:16:29;97636.59;;;3.09;60.10
17209;BME280;8720;48.488;9.202;2023-01-30T00:18:56;97642.53;;;3.03;60.06
17209;BME280;8720;48.488;9.202;2023-01-30T00:21:23;97646.91;;;3.06;59.88
17209;BME280;8720;48.488;9.202;2023-01-30T00:23:51;97639.13;;;3.04;59.85
17209;BME280;8720;48.488;9.202;2023-01-30T00:26:18;97644.31;;;3.04;59.60
17209;BME280;8720;48.488;9.202;2023-01-30T00:28:45;97633.06;;;3.02;59.83
17209;BME280;8720;48.488;9.202;2023-01-30T00:31:14;97628.69;;;2.98;59.69
17209;BME280;8720;48.488;9.202;2023-01-30T00:33:41;97614.03;;;2.97;59.40
17209;BME280;8720;48.488;9.202;2023-01-30T00:36:09;97611.41;;;2.96;60.04
17209;BME280;8720;48.488;9.202;2023-01-30T00:38:37;97613.13;;;2.94;59.61
17209;BME280;8720;48.488;9.202;2023-01-30T00:41:06;97609.63;;;2.92;59.35
17209;BME280;8720;48.488;9.202;2023-01-30T00:43:35;97613.06;;;2.89;59.52
17209;BME280;8720;48.488;9.202;2023-01-30T00:46:29;97613.88;;;2.85;59.67
17209;BME280;8720;48.488;9.202;2023-01-30T00:49:14;97601.63;;;2.73;59.81
17209;BME280;8720;48.488;9.202;2023-01-30T00:51:42;97610.34;;;2.82;59.60
17209;BME280;8720;48.488;9.202;2023-01-30T00:54:10;97610.34;;;2.82;59.31
17209;BME280;8720;48.488;9.202;2023-01-30T00:56:37;97608.63;;;2.81;59.06
17209;BME280;8720;48.488;9.202;2023-01-30T00:59:04;97600.00;;;2.80;59.18
17209;BME280;8720;48.488;9.202;2023-01-30T01:01:33;97592.25;;;2.80;59.07
17209;BME280;8720;48.488;9.202;2023-01-30T01:04:01;97592.22;;;2.78;59.00
17209;BME280;8720;48.488;9.202;2023-01-30T01:06:28;97592.19;;;2.77;58.98
17209;BME280;8720;48.488;9.202;2023-01-30T01:08:55;97585.13;;;2.64;59.38
17209;BME280;8720;48.488;9.202;2023-01-30T01:11:23;97595.63;;;2.76;59.02
17209;BME280;8720;48.488;9.202;2023-01-30T01:13:55;97586.75;;;2.59;58.86
17209;BME280;8720;48.488;9.202;2023-01-30T01:16:23;97612.78;;;2.72;58.83
17209;BME280;8720;48.488;9.202;2023-01-30T01:18:53;97616.19;;;2.70;59.19
17209;BME280;8720;48.488;9.202;2023-01-30T01:21:21;97624.81;;;2.70;59.04
17209;BME280;8720;48.488;9.202;2023-01-30T01:23:49;97638.59;;;2.71;59.10
17209;BME280;8720;48.488;9.202;2023-01-30T01:26:17;97627.38;;;2.70;58.91
17209;BME280;8720;48.488;9.202;2023-01-30T01:28:45;97635.13;;;2.69;58.95
17209;BME280;8720;48.488;9.202;2023-01-30T01:31:15;97645.44;;;2.67;58.93
17209;BME280;8720;48.488;9.202;2023-01-30T01:33:42;97651.44;;;2.66;59.07
17209;BME280;8720;48.488;9.202;2023-01-30T01:36:11;97661.75;;;2.65;59.09
17209;BME280;8720;48.488;9.202;2023-01-30T01:38:41;97660.91;;;2.66;59.10
17209;BME280;8720;48.488;9.202;2023-01-30T01:41:10;97687.56;;;2.65;59.08
17209;BME280;8720;48.488;9.202;2023-01-30T01:44:00;97675.38;;;2.56;59.06
17209;BME280;8720;48.488;9.202;2023-01-30T01:46:32;97692.72;;;2.65;59.27
17209;BME280;8720;48.488;9.202;2023-01-30T01:49:05;97700.50;;;2.66;59.22
17209;BME280;8720;48.488;9.202;2023-01-30T01:51:39;97700.56;;;2.68;59.32
17209;BME280;8720;48.488;9.202;2023-01-30T01:54:12;97686.56;;;2.57;59.27
17209;BME280;8720;48.488;9.202;2023-01-30T01:56:44;97699.69;;;2.69;58.93
17209;BME280;8720;48.488;9.202;2023-01-30T01:59:20;97698.84;;;2.70;59.09
17209;BME280;8720;48.488;9.202;2023-01-30T02:01:55;97685.06;;;2.69;59.24
17209;BME280;8720;48.488;9.202;2023-01-30T02:04:26;97672.09;;;2.66;59.35
17209;BME280;8720;48.488;9.202;2023-01-30T02:07:16;97671.16;;;2.63;59.36
17209;BME280;8720;48.488;9.202;2023-01-30T02:09:44;97659.88;;;2.56;59.40
17209;BME280;8720;48.488;9.202;2023-01-30T02:12:14;97655.66;;;2.61;59.52
17209;BME280;8720;48.488;9.202;2023-01-30T02:14:43;97659.06;;;2.60;59.55
17209;BME280;8720;48.488;9.202;2023-01-30T02:17:12;97631.31;;;2.47;59.36
17209;BME280;8720;48.488;9.202;2023-01-30T02:19:48;97665.97;;;2.60;59.39
17209;BME280;8720;48.488;9.202;2023-01-30T02:26:33;97671.97;;;2.60;60.10
17209;BME280;8720;48.488;9.202;2023-01-30T02:29:53;97659.06;;;2.60;59.90
17209;BME280;8720;48.488;9.202;2023-01-30T02:32:31;97644.47;;;2.62;60.20
17209;BME280;8720;48.488;9.202;2023-01-30T02:35:10;97649.75;;;2.68;60.17
17209;BME280;8720;48.488;9.202;2023-01-30T02:37:55;97645.53;;;2.73;60.16
17209;BME280;8720;48.488;9.202;2023-01-30T02:40:40;97662.84;;;2.79;60.01
17209;BME280;8720;48.488;9.202;2023-01-30T02:43:19;97668.94;;;2.84;59.86
17209;BME280;8720;48.488;9.202;2023-01-30T02:45:56;97662.94;;;2.85;59.91
17209;BME280;8720;48.488;9.202;2023-01-30T02:48:35;97665.59;;;2.90;59.57
17209;BME280;8720;48.488;9.202;2023-01-30T02:51:11;97662.22;;;2.95;59.60
17209;BME280;8720;48.488;9.202;2023-01-30T02:53:41;97639.94;;;3.00;59.68
17209;BME280;8720;48.488;9.202;2023-01-30T02:56:08;97633.09;;;3.04;59.52
17209;BME280;8720;48.488;9.202;2023-01-30T02:58:43;97639.13;;;3.04;59.38
17209;BME280;8720;48.488;9.202;2023-01-30T03:04:25;97648.78;;;3.14;59.49
17209;BME280;8720;48.488;9.202;2023-01-30T03:07:15;97640.13;;;3.14;59.68
17209;BME280;8720;48.488;9.202;2023-01-30T03:09:57;97650.50;;;3.15;59.37
17209;BME280;8720;48.488;9.202;2023-01-30T03:12:40;97647.09;;;3.18;59.36
17209;BME280;8720;48.488;9.202;2023-01-30T03:15:17;97633.25;;;3.14;59.29
17209;BME280;8720;48.488;9.202;2023-01-30T03:17:47;97637.59;;;3.18;59.43
17209;BME280;8720;48.488;9.202;2023-01-30T03:20:19;97656.59;;;3.20;59.39
17209;BME280;8720;48.488;9.202;2023-01-30T03:22:48;97646.19;;;3.16;59.45
17209;BME280;8720;48.488;9.202;2023-01-30T03:25:20;97654.03;;;3.22;59.60
17209;BME280;8720;48.488;9.202;2023-01-30T03:27:50;97636.78;;;3.21;59.40
17209;BME280;8720;48.488;9.202;2023-01-30T03:30:19;97629.97;;;3.26;59.48
17209;BME280;8720;48.488;9.202;2023-01-30T03:32:48;97617.91;;;3.26;59.25
17209;BME280;8720;48.488;9.202;2023-01-30T03:35:17;97617.06;;;3.29;59.31
17209;BME280;8720;48.488;9.202;2023-01-30T03:37:45;97630.03;;;3.30;59.39
17209;BME280;8720;48.488;9.202;2023-01-30T03:40:15;97639.53;;;3.31;59.46
17209;BME280;8720;48.488;9.202;2023-01-30T03:42:44;97639.53;;;3.31;59.57
17209;BME280;8720;48.488;9.202;2023-01-30T03:45:12;97622.19;;;3.24;59.46
17209;BME280;8720;48.488;9.202;2023-01-30T03:47:39;97599.09;;;3.36;59.32
17209;BME280;8720;48.488;9.202;2023-01-30T03:50:09;97570.63;;;3.36;59.29
17209;BME280;8720;48.488;9.202;2023-01-30T03:53:03;97503.41;;;3.33;59.61
17209;BME280;8720;48.488;9.202;2023-01-30T03:55:30;97485.31;;;3.36;59.80
17209;BME280;8720;48.488;9.202;2023-01-30T03:57:58;97472.38;;;3.35;59.99
17209;BME280;8720;48.488;9.202;2023-01-30T04:00:30;97491.44;;;3.44;60.18
17209;BME280;8720;48.488;9.202;2023-01-30T04:02:58;97528.59;;;3.51;60.12
17209;BME280;8720;48.488;9.202;2023-01-30T04:05:26;97556.28;;;3.59;60.08
17209;BME280;8720;48.488;9.202;2023-01-30T04:08:00;97571.00;;;3.66;60.38
17209;BME280;8720;48.488;9.202;2023-01-30T04:10:29;97567.66;;;3.74;60.16
17209;BME280;8720;48.488;9.202;2023-01-30T04:12:56;97577.22;;;3.81;60.25
17209;BME280;8720;48.488;9.202;2023-01-30T04:15:24;97570.38;;;3.86;60.00
17209;BME280;8720;48.488;9.202;2023-01-30T04:18:20;97563.47;;;3.88;60.00
17209;BME280;8720;48.488;9.202;2023-01-30T04:21:02;97568.69;;;3.89;59.83
17209;BME280;8720;48.488;9.202;2023-01-30T04:23:38;97567.00;;;3.93;59.92
17209;BME280;8720;48.488;9.202;2023-01-30T04:26:08;97581.66;;;3.94;59.86
17209;BME280;8720;48.488;9.202;2023-01-30T04:28:38;97568.69;;;3.89;59.68
17209;BME280;8720;48.488;9.202;2023-01-30T04:31:06;97592.06;;;3.97;59.91
17209;BME280;8720;48.488;9.202;2023-01-30T04:33:43;97600.72;;;3.99;60.09
17209;BME280;8720;48.488;9.202;2023-01-30T04:36:12;97596.41;;;4.01;60.09
17209;BME280;8720;48.488;9.202;2023-01-30T04:38:40;97611.94;;;4.01;60.02
17209;BME280;8720;48.488;9.202;2023-01-30T04:41:09;97615.44;;;4.04;59.62
17209;BME280;8720;48.488;9.202;2023-01-30T04:43:39;97602.47;;;4.03;59.80
17209;BME280;8720;48.488;9.202;2023-01-30T04:46:28;97598.16;;;4.03;59.78
17209;BME280;8720;48.488;9.202;2023-01-30T04:48:56;97594.72;;;4.03;59.70
17209;BME280;8720;48.488;9.202;2023-01-30T04:51:25;97595.59;;;4.05;59.78
17209;BME280;8720;48.488;9.202;2023-01-30T04:53:52;97593.84;;;4.05;59.66
17209;BME280;8720;48.488;9.202;2023-01-30T04:56:21;97580.09;;;4.06;59.58
17209;BME280;8720;48.488;9.202;2023-01-30T04:58:49;97569.72;;;4.08;59.61
17209;BME280;8720;48.488;9.202;2023-01-30T05:01:24;97571.50;;;4.09;59.59
17209;BME280;8720;48.488;9.202;2023-01-30T05:03:55;97550.66;;;3.98;59.54
17209;BME280;8720;48.488;9.202;2023-01-30T05:06:23;97571.44;;;4.04;59.32
17209;BME280;8720;48.488;9.202;2023-01-30T05:08:52;97585.28;;;4.09;59.57
17209;BME280;8720;48.488;9.202;2023-01-30T05:11:23;97580.16;;;4.12;59.54
17209;BME280;8720;48.488;9.202;2023-01-30T05:13:51;97588.75;;;4.13;59.68
17209;BME280;8720;48.488;9.202;2023-01-30T05:16:19;97583.66;;;4.19;59.58
17209;BME280;8720;48.488;9.202;2023-01-30T05:18:47;97607.00;;;4.25;59.63
17209;BME280;8720;48.488;9.202;2023-01-30T05:21:18;97607.06;;;4.31;59.52
17209;BME280;8720;48.488;9.202;2023-01-30T05:23:46;97595.91;;;4.35;59.57
17209;BME280;8720;48.488;9.202;2023-01-30T05:26:14;97585.59;;;4.39;59.57
17209;BME280;8720;48.488;9.202;2023-01-30T05:28:43;97591.66;;;4.44;59.60
17209;BME280;8720;48.488;9.202;2023-01-30T05:31:12;97566.59;;;4.40;59.61
17209;BME280;8720;48.488;9.202;2023-01-30T05:33:40;97571.88;;;4.52;59.47
17209;BME280;8720;48.488;9.202;2023-01-30T05:36:12;97566.75;;;4.61;59.50
17209;BME280;8720;48.488;9.202;2023-01-30T05:38:42;97565.94;;;4.66;59.33
17209;BME280;8720;48.488;9.202;2023-01-30T05:41:15;97549.50;;;4.65;59.28
17209;BME280;8720;48.488;9.202;2023-01-30T05:43:48;97545.22;;;4.67;59.37
17209;BME280;8720;48.488;9.202;2023-01-30T05:46:16;97547.91;;;4.81;59.35
17209;BME280;8720;48.488;9.202;2023-01-30T05:48:43;97541.00;;;4.84;59.15
17209;BME280;8720;48.488;9.202;2023-01-30T05:51:17;97534.09;;;4.86;59.11
17209;BME280;8720;48.488;9.202;2023-01-30T05:53:45;97541.03;;;4.90;59.21
17209;BME280;8720;48.488;9.202;2023-01-30T05:56:13;97539.38;;;4.95;58.99
17209;BME280;8720;48.488;9.202;2023-01-30T05:58:41;97534.19;;;4.95;59.14
17209;BME280;8720;48.488;9.202;2023-01-30T06:01:12;97530.75;;;5.02;58.86
17209;BME280;8720;48.488;9.202;2023-01-30T06:03:39;97531.63;;;5.07;58.83
17209;BME280;8720;48.488;9.202;2023-01-30T06:06:07;97522.19;;;5.12;58.80
17209;BME280;8720;48.488;9.202;2023-01-30T06:08:34;97517.84;;;5.11;58.43
17209;BME280;8720;48.488;9.202;2023-01-30T06:11:04;97527.41;;;5.18;58.40
17209;BME280;8720;48.488;9.202;2023-01-30T06:13:32;97520.47;;;5.17;58.38
17209;BME280;8720;48.488;9.202;2023-01-30T06:16:00;97528.28;;;5.25;58.43
17209;BME280;8720;48.488;9.202;2023-01-30T06:18:28;97518.81;;;5.30;58.30
17209;BME280;8720;48.488;9.202;2023-01-30T06:20:56;97518.81;;;5.34;58.22
17209;BME280;8720;48.488;9.202;2023-01-30T06:23:23;97534.41;;;5.40;58.43
17209;BME280;8720;48.488;9.202;2023-01-30T06:25:52;97531.84;;;5.46;58.19
17209;BME280;8720;48.488;9.202;2023-01-30T06:28:21;97527.56;;;5.53;58.00
17209;BME280;8720;48.488;9.202;2023-01-30T06:30:49;97512.84;;;5.60;58.06
17209;BME280;8720;48.488;9.202;2023-01-30T06:33:17;97515.47;;;5.67;57.57
17209;BME280;8720;48.488;9.202;2023-01-30T06:35:49;97505.09;;;5.73;57.67
17209;BME280;8720;48.488;9.202;2023-01-30T06:38:18;97494.72;;;5.73;57.67
17209;BME280;8720;48.488;9.202;2023-01-30T06:40:48;97499.97;;;5.85;57.34
17209;BME280;8720;48.488;9.202;2023-01-30T06:43:17;97505.19;;;5.91;57.54
17209;BME280;8720;48.488;9.202;2023-01-30T06:45:44;97500.03;;;5.96;57.37
17209;BME280;8720;48.488;9.202;2023-01-30T06:48:11;97508.66;;;5.98;57.24
17209;BME280;8720;48.488;9.202;2023-01-30T06:50:39;97519.03;;;5.98;57.16
17209;BME280;8720;48.488;9.202;2023-01-30T06:53:09;97512.13;;;6.01;57.13
17209;BME280;8720;48.488;9.202;2023-01-30T06:55:36;97526.88;;;6.07;57.28
17209;BME280;8720;48.488;9.202;2023-01-30T06:58:07;97515.59;;;6.03;57.04
17209;BME280;8720;48.488;9.202;2023-01-30T07:00:35;97507.81;;;6.06;57.04
17209;BME280;8720;48.488;9.202;2023-01-30T07:03:04;97510.44;;;6.17;57.08
17209;BME280;8720;48.488;9.202;2023-01-30T07:05:32;97488.75;;;6.54;51.18
17209;BME280;8720;48.488;9.202;2023-01-30T07:07:59;97488.78;;;6.53;53.92
17209;BME280;8720;48.488;9.202;2023-01-30T07:10:28;97487.91;;;6.49;54.77
17209;BME280;8720;48.488;9.202;2023-01-30T07:12:57;97467.97;;;6.47;55.50
17209;BME280;8720;48.488;9.202;2023-01-30T07:15:25;97466.25;;;6.42;55.28
17209;BME280;8720;48.488;9.202;2023-01-30T07:17:52;97462.78;;;6.50;55.74
17209;BME280;8720;48.488;9.202;2023-01-30T07:20:20;97450.66;;;6.49;55.88
17209;BME280;8720;48.488;9.202;2023-01-30T07:22:51;97455.84;;;6.55;55.88
17209;BME280;8720;48.488;9.202;2023-01-30T07:25:19;97459.31;;;6.57;56.07
17209;BME280;8720;48.488;9.202;2023-01-30T07:27:52;97475.75;;;6.60;55.80
17209;BME280;8720;48.488;9.202;2023-01-30T07:30:20;97489.63;;;6.61;56.07
17209;BME280;8720;48.488;9.202;2023-01-30T07:32:51;97505.22;;;6.61;56.14
17209;BME280;8720;48.488;9.202;2023-01-30T07:35:19;97510.41;;;6.56;56.28
17209;BME280;8720;48.488;9.202;2023-01-30T07:37:48;97501.75;;;6.60;56.41
17209;BME280;8720;48.488;9.202;2023-01-30T07:40:17;97500.03;;;6.62;56.56
17209;BME280;8720;48.488;9.202;2023-01-30T07:42:56;97495.66;;;6.67;56.46
17209;BME280;8720;48.488;9.202;2023-01-30T07:45:24;97523.41;;;6.70;56.63
17209;BME280;8720;48.488;9.202;2023-01-30T07:47:53;97520.81;;;6.73;56.54
17209;BME280;8720;48.488;9.202;2023-01-30T07:50:20;97515.63;;;6.74;56.68
17209;BME280;8720;48.488;9.202;2023-01-30T07:52:47;97509.53;;;6.78;56.72
17209;BME280;8720;48.488;9.202;2023-01-30T07:55:15;97509.50;;;6.83;56.79
17209;BME280;8720;48.488;9.202;2023-01-30T07:57:42;97512.97;;;6.89;56.83
17209;BME280;8720;48.488;9.202;2023-01-30T08:00:13;97510.38;;;6.95;56.64
17209;BME280;8720;48.488;9.202;2023-01-30T08:02:41;97512.09;;;7.02;56.89
17209;BME280;8720;48.488;9.202;2023-01-30T08:05:09;97518.13;;;7.10;56.79
17209;BME280;8720;48.488;9.202;2023-01-30T08:07:36;97513.78;;;7.15;56.83
17209;BME280;8720;48.488;9.202;2023-01-30T08:10:04;97510.28;;;7.19;56.83
17209;BME280;8720;48.488;9.202;2023-01-30T08:12:31;97507.66;;;7.27;56.98
17209;BME280;8720;48.488;9.202;2023-01-30T08:14:59;97500.72;;;7.32;57.02
17209;BME280;8720;48.488;9.202;2023-01-30T08:17:28;97481.59;;;7.41;57.10
17209;BME280;8720;48.488;9.202;2023-01-30T08:19:55;97476.38;;;7.50;57.21
17209;BME280;8720;48.488;9.202;2023-01-30T08:22:22;97485.00;;;7.58;57.24
17209;BME280;8720;48.488;9.202;2023-01-30T08:24:50;97497.97;;;7.64;57.21
17209;BME280;8720;48.488;9.202;2023-01-30T08:27:17;97499.69;;;7.68;57.25
17209;BME280;8720;48.488;9.202;2023-01-30T08:29:44;97519.63;;;7.73;57.10
17209;BME280;8720;48.488;9.202;2023-01-30T08:32:12;97523.97;;;7.74;57.64
17209;BME280;8720;48.488;9.202;2023-01-30T08:34:41;97527.41;;;7.82;57.18
17209;BME280;8720;48.488;9.202;2023-01-30T08:37:08;97532.56;;;7.87;57.30
17209;BME280;8720;48.488;9.202;2023-01-30T08:39:36;97526.50;;;7.92;57.33
17209;BME280;8720;48.488;9.202;2023-01-30T08:42:03;97507.34;;;7.95;57.23
17209;BME280;8720;48.488;9.202;2023-01-30T08:44:30;97512.50;;;8.02;57.18
17209;BME280;8720;48.488;9.202;2023-01-30T08:46:58;97521.19;;;8.06;57.00
17209;BME280;8720;48.488;9.202;2023-01-30T08:49:25;97511.59;;;8.08;57.01
17209;BME280;8720;48.488;9.202;2023-01-30T08:51:54;97504.53;;;8.34;52.53
17209;BME280;8720;48.488;9.202;2023-01-30T08:54:22;97511.50;;;8.31;54.46
17209;BME280;8720;48.488;9.202;2023-01-30T08:56:49;97521.94;;;8.27;55.42
17209;BME280;8720;48.488;9.202;2023-01-30T08:59:17;97526.31;;;8.27;55.86
17209;BME280;8720;48.488;9.202;2023-01-30T09:01:44;97519.31;;;8.32;55.94
17209;BME280;8720;48.488;9.202;2023-01-30T09:04:14;97515.81;;;8.35;56.32
17209;BME280;8720;48.488;9.202;2023-01-30T09:06:41;97517.47;;;8.46;56.40
17209;BME280;8720;48.488;9.202;2023-01-30T09:09:10;97520.03;;;8.49;56.42
17209;BME280;8720;48.488;9.202;2023-01-30T09:11:37;97524.34;;;8.53;56.49
17209;BME280;8720;48.488;9.202;2023-01-30T09:14:04;97501.78;;;8.52;56.36
17209;BME280;8720;48.488;9.202;2023-01-30T09:16:32;97502.59;;;8.57;56.44
17209;BME280;8720;48.488;9.202;2023-01-30T09:18:59;97492.16;;;8.59;56.65
17209;BME280;8720;48.488;9.202;2023-01-30T09:21:27;97479.09;;;8.60;56.52
17209;BME280;8720;48.488;9.202;2023-01-30T09:23:55;97473.84;;;8.63;56.62
17209;BME280;8720;48.488;9.202;2023-01-30T09:26:24;97455.63;;;8.60;56.34
17209;BME280;8720;48.488;9.202;2023-01-30T09:28:51;97478.22;;;8.58;56.25
17209;BME280;8720;48.488;9.202;2023-01-30T09:31:19;97475.69;;;8.54;56.30
17209;BME280;8720;48.488;9.202;2023-01-30T09:33:46;97482.66;;;8.49;56.50
17209;BME280;8720;48.488;9.202;2023-01-30T09:36:16;97472.28;;;8.46;56.61
17209;BME280;8720;48.488;9.202;2023-01-30T09:38:44;97488.78;;;8.46;56.69
17209;BME280;8720;48.488;9.202;2023-01-30T09:41:45;97488.75;;;8.49;57.44
17209;BME280;8720;48.488;9.202;2023-01-30T09:44:55;97480.00;;;8.55;57.25
17209;BME280;8720;48.488;9.202;2023-01-30T09:47:42;97473.91;;;8.57;57.76
17209;BME280;8720;48.488;9.202;2023-01-30T09:50:42;97475.56;;;8.67;57.55
17209;BME280;8720;48.488;9.202;2023-01-30T09:53:24;97465.97;;;8.71;57.30
17209;BME280;8720;48.488;9.202;2023-01-30T09:55:57;97448.56;;;8.73;57.00
17209;BME280;8720;48.488;9.202;2023-01-30T09:58:41;97467.59;;;8.81;57.38
17209;BME280;8720;48.488;9.202;2023-01-30T10:01:20;97468.41;;;8.89;57.46
17209;BME280;8720;48.488;9.202;2023-01-30T10:04:05;97448.31;;;8.95;57.39
17209;BME280;8720;48.488;9.202;2023-01-30T10:06:50;97453.50;;;9.00;57.29
17209;BME280;8720;48.488;9.202;2023-01-30T10:09:32;97456.03;;;9.04;57.22
17209;BME280;8720;48.488;9.202;2023-01-30T10:12:25;97429.00;;;9.08;57.59
17209;BME280;8720;48.488;9.202;2023-01-30T10:15:21;97414.97;;;9.20;57.67
17209;BME280;8720;48.488;9.202;2023-01-30T10:21:05;97396.44;;;9.40;57.70
17209;BME280;8720;48.488;9.202;2023-01-30T10:23:58;97401.53;;;9.50;57.78
17209;BME280;8720;48.488;9.202;2023-01-30T10:26:30;97370.19;;;9.50;57.68
17209;BME280;8720;48.488;9.202;2023-01-30T10:29:03;97381.28;;;9.66;57.33
17209;BME280;8720;48.488;9.202;2023-01-30T10:31:40;97382.97;;;9.68;57.19
17209;BME280;8720;48.488;9.202;2023-01-30T10:34:14;97375.91;;;9.75;57.05
17209;BME280;8720;48.488;9.202;2023-01-30T10:36:52;97388.03;;;9.79;56.91
17209;BME280;8720;48.488;9.202;2023-01-30T10:39:28;97386.22;;;9.84;57.08
17209;BME280;8720;48.488;9.202;2023-01-30T10:42:08;97392.16;;;9.93;57.22
17209;BME280;8720;48.488;9.202;2023-01-30T10:44:39;97378.06;;;10.03;57.30
17209;BME280;8720;48.488;9.202;2023-01-30T10:47:32;97372.72;;;10.14;57.62
17209;BME280;8720;48.488;9.202;2023-01-30T10:50:15;97383.88;;;10.24;57.38
17209;BME280;8720;48.488;9.202;2023-01-30T10:52:53;97387.19;;;10.32;57.41
17209;BME280;8720;48.488;9.202;2023-01-30T10:55:32;97382.69;;;10.40;57.47
17209;BME280;8720;48.488;9.202;2023-01-30T10:58:14;97365.94;;;10.51;57.32
17209;BME280;8720;48.488;9.202;2023-01-30T11:00:51;97367.53;;;10.60;57.18
17209;BME280;8720;48.488;9.202;2023-01-30T11:03:32;97361.28;;;10.67;57.06
17209;BME280;8720;48.488;9.202;2023-01-30T11:06:07;97359.44;;;10.70;57.01
17209;BME280;8720;48.488;9.202;2023-01-30T11:08:37;97368.19;;;10.71;56.95
17209;BME280;8720;48.488;9.202;2023-01-30T11:11:26;97362.16;;;10.67;57.12
17209;BME280;8720;48.488;9.202;2023-01-30T11:14:03;97379.41;;;10.77;56.85
17209;BME280;8720;48.488;9.202;2023-01-30T11:16:32;97360.28;;;10.72;56.84
17209;BME280;8720;48.488;9.202;2023-01-30T11:19:05;97364.53;;;10.79;56.43
17209;BME280;8720;48.488;9.202;2023-01-30T11:21:33;97373.22;;;10.81;56.63
17209;BME280;8720;48.488;9.202;2023-01-30T11:24:05;97378.50;;;10.78;56.48
17209;BME280;8720;48.488;9.202;2023-01-30T11:26:37;97377.59;;;10.81;56.74
17209;BME280;8720;48.488;9.202;2023-01-30T11:29:27;97368.81;;;10.82;56.46
17209;BME280;8720;48.488;9.202;2023-01-30T11:31:55;97355.69;;;10.85;56.56
17209;BME280;8720;48.488;9.202;2023-01-30T11:34:24;97344.34;;;10.84;56.52
17209;BME280;8720;48.488;9.202;2023-01-30T11:36:52;97347.72;;;10.89;56.45
17209;BME280;8720;48.488;9.202;2023-01-30T11:39:22;97353.59;;;11.02;56.57
17209;BME280;8720;48.488;9.202;2023-01-30T11:42:00;97350.81;;;11.10;56.52
17209;BME280;8720;48.488;9.202;2023-01-30T11:44:32;97352.50;;;11.14;56.56
17209;BME280;8720;48.488;9.202;2023-01-30T11:47:03;97345.38;;;11.19;56.59
17209;BME280;8720;48.488;9.202;2023-01-30T11:49:40;97341.81;;;11.23;56.60
17209;BME280;8720;48.488;9.202;2023-01-30T11:52:09;97344.31;;;11.29;56.57
17209;BME280;8720;48.488;9.202;2023-01-30T11:54:41;97349.50;;;11.30;56.54
17209;BME280;8720;48.488;9.202;2023-01-30T11:57:13;97347.69;;;11.34;56.63
17209;BME280;8720;48.488;9.202;2023-01-30T11:59:45;97344.97;;;11.38;56.46
17209;BME280;8720;48.488;9.202;2023-01-30T12:02:19;97345.88;;;11.37;56.71
17209;BME280;8720;48.488;9.202;2023-01-30T12:04:53;97348.38;;;11.42;56.69
17209;BME280;8720;48.488;9.202;2023-01-30T12:07:24;97340.50;;;11.42;56.56
17209;BME280;8720;48.488;9.202;2023-01-30T12:09:52;97328.25;;;11.44;56.57
17209;BME280;8720;48.488;9.202;2023-01-30T12:12:31;97334.13;;;11.53;56.28
17209;BME280;8720;48.488;9.202;2023-01-30T12:15:19;97338.53;;;11.51;56.62
17209;BME280;8720;48.488;9.202;2023-01-30T12:17:56;97327.38;;;11.45;56.05
17209;BME280;8720;48.488;9.202;2023-01-30T12:20:43;97329.84;;;11.49;56.27
17209;BME280;8720;48.488;9.202;2023-01-30T12:23:20;97331.63;;;11.49;56.02
17209;BME280;8720;48.488;9.202;2023-01-30T12:26:00;97334.31;;;11.46;55.97
17209;BME280;8720;48.488;9.202;2023-01-30T12:28:38;97323.91;;;11.43;56.18
17209;BME280;8720;48.488;9.202;2023-01-30T12:31:15;97335.31;;;11.40;55.96
17209;BME280;8720;48.488;9.202;2023-01-30T12:33:45;97332.66;;;11.42;56.17
17209;BME280;8720;48.488;9.202;2023-01-30T12:36:31;97322.25;;;11.39;56.17
17209;BME280;8720;48.488;9.202;2023-01-30T12:39:26;97318.72;;;11.40;56.50
17209;BME280;8720;48.488;9.202;2023-01-30T12:45:18;97303.22;;;11.31;56.52
17209;BME280;8720;48.488;9.202;2023-01-30T12:48:19;97311.03;;;11.32;57.03
17209;BME280;8720;48.488;9.202;2023-01-30T12:51:04;97311.94;;;11.31;56.86
17209;BME280;8720;48.488;9.202;2023-01-30T12:53:52;97313.66;;;11.32;56.82
17209;BME280;8720;48.488;9.202;2023-01-30T12:57:01;97318.03;;;11.33;57.26
17209;BME280;8720;48.488;9.202;2023-01-30T12:59:38;97326.75;;;11.32;56.67
17209;BME280;8720;48.488;9.202;2023-01-30T13:02:44;97323.44;;;11.26;57.09
17209;BME280;8720;48.488;9.202;2023-01-30T13:05:31;97326.22;;;11.18;56.53
17209;BME280;8720;48.488;9.202;2023-01-30T13:11:14;97343.00;;;11.08;56.63
17209;BME280;8720;48.488;9.202;2023-01-30T13:13:55;97329.13;;;11.03;57.08
17209;BME280;8720;48.488;9.202;2023-01-30T13:16:35;97342.38;;;10.95;56.57
17209;BME280;8720;48.488;9.202;2023-01-30T13:19:15;97362.44;;;10.96;56.60
17209;BME280;8720;48.488;9.202;2023-01-30T13:21:53;97349.41;;;10.93;56.61
17209;BME280;8720;48.488;9.202;2023-01-30T13:24:46;97328.78;;;10.78;56.72
17209;BME280;8720;48.488;9.202;2023-01-30T13:27:20;97355.66;;;10.86;56.62
17209;BME280;8720;48.488;9.202;2023-01-30T13:29:48;97369.72;;;10.81;56.30
17209;BME280;8720;48.488;9.202;2023-01-30T13:32:33;97368.03;;;10.78;56.88
17209;BME280;8720;48.488;9.202;2023-01-30T13:35:06;97361.13;;;10.74;56.72
17209;BME280;8720;48.488;9.202;2023-01-30T13:37:41;97362.09;;;10.69;56.77
17209;BME280;8720;48.488;9.202;2023-01-30T13:40:17;97362.22;;;10.64;56.72
17209;BME280;8720;48.488;9.202;2023-01-30T13:42:51;97372.88;;;10.54;56.76
17209;BME280;8720;48.488;9.202;2023-01-30T13:45:24;97384.16;;;10.56;56.77
17209;BME280;8720;48.488;9.202;2023-01-30T13:48:13;97391.22;;;10.52;57.12
17209;BME280;8720;48.488;9.202;2023-01-30T13:50:58;97393.84;;;10.49;57.23
17209;BME280;8720;48.488;9.202;2023-01-30T13:53:40;97392.13;;;10.50;57.33
17209;BME280;8720;48.488;9.202;2023-01-30T13:56:21;97397.34;;;10.50;57.26
17209;BME280;8720;48.488;9.202;2023-01-30T13:59:01;97387.75;;;10.50;57.47
17209;BME280;8720;48.488;9.202;2023-01-30T14:02:16;97393.00;;;10.50;58.02
17209;BME280;8720;48.488;9.202;2023-01-30T14:04:47;97398.22;;;10.50;57.81
17209;BME280;8720;48.488;9.202;2023-01-30T14:07:20;97396.47;;;10.51;57.61
17209;BME280;8720;48.488;9.202;2023-01-30T14:10:02;97394.75;;;10.48;57.71